Portada
METAR-TAF:

METAR-TAF

Aeroports :

Aeroport Internacional de Puebla

Puebla, Mèxic

latitud: 19-03N, longitud: 098-10W, altitud: 2179 m

Observació

L'informe es va fer fa 36 minuts, a les 15:49 UTC
Vent 4 kt del Nord
Temperatura 18°C
Humitat 45%
Pressió 1028 hPa
Visibilitat: 12.9 km
Cel clar

METAR: MMPB 061549Z 01004KT 8SM SKC 18/06 A3037 RMK HZY

Hora: 10:25 (16:25 UTC)

Pronòstic

L'informe es va fer fa 13 hores i 46 minuts, a les 02:39 UTC
Pronòstic vàlid del 06 a les 06 UTC al 07 a les 06 UTC
Vent 5 kt del Oest
Visibilitat: 10 km
Cel clar
A partir de les 06 a les 1800 UTC
Vent 8 kt del Sud
Visibilitat: 10 km
Núvols disperses a una alçada de 25000 ft
A partir de les 07 a les 0500 UTC
Vent 5 kt del Oest
Visibilitat: 10 km
Cel clar

TAF: MMPB 060239Z 0606/0706 26005KT P6SM SKC FM061800 18008KT P6SM SCT250 FM070500 28005KT P6SM SKC

Observacions i pronòstics meteorològics de més de 4000 aeroports (METAR i TAF).

Les estacions disponibles són els punts grocs i vermells al mapa.

Posi el ratolí al punt desitjat per veure el nom de l'estació.

Feu clic per veure les observacions i els pronòstics meteorològics.

Per canviar el mapa: feu clic els botons verds amb una creu de color negre per apropar; al botó verd amb un guió per allunyar la imatge; o en les fletxes verdes per a mapes adjacents.


METAR-TAF: